Time;durP1;ratioP1;P1;durP2;ratioP2;P2;SDS_P1;SDS_P2;PMS_P1;PMS_P2;Temp;Humidity;BMP_temperature;BMP_pressure;BME280_temperature;BME280_humidity;BME280_pressure;Samples;Min_cycle;Max_cycle;Signal;HPM_P1;HPM_P2
2023/08/13 00:01:00;;;;;;;6.80;3.27;;;24.50;92.60;;;;;;4976657;28;20317;-69
2023/08/13 00:03:26;;;;;;;8.55;3.10;;;24.50;92.50;;;;;;4976175;28;20551;-68
2023/08/13 00:05:51;;;;;;;7.27;2.90;;;24.50;92.60;;;;;;4974667;28;20034;-72
2023/08/13 00:08:17;;;;;;;5.40;2.60;;;24.50;92.80;;;;;;4981980;28;20031;-68
2023/08/13 00:10:42;;;;;;;9.87;3.00;;;24.40;92.80;;;;;;4979153;28;20105;-77
2023/08/13 00:13:09;;;;;;;13.13;2.97;;;24.40;93.30;;;;;;4981130;28;20035;-69
2023/08/13 00:15:35;;;;;;;7.75;2.72;;;24.40;93.20;;;;;;4981429;28;20176;-67
2023/08/13 00:18:01;;;;;;;7.30;2.80;;;24.40;93.50;;;;;;4981627;28;20573;-68
2023/08/13 00:20:26;;;;;;;7.77;3.00;;;24.40;93.40;;;;;;4978650;28;20330;-72
2023/08/13 00:22:52;;;;;;;9.13;3.37;;;24.40;93.50;;;;;;4982681;28;20049;-70
2023/08/13 00:25:17;;;;;;;10.47;3.40;;;24.40;93.50;;;;;;4978885;28;20026;-73
2023/08/13 00:27:43;;;;;;;5.40;2.77;;;24.30;93.80;;;;;;4983449;28;20022;-69
2023/08/13 00:30:09;;;;;;;11.17;2.60;;;24.20;93.70;;;;;;4977829;28;20752;-68
2023/08/13 00:32:35;;;;;;;;;;;24.20;94.10;;;;;;4980265;28;20274;-73
2023/08/13 00:35:01;;;;;;;7.78;3.00;;;24.20;94.10;;;;;;4973778;28;19917;-71
2023/08/13 00:37:26;;;;;;;6.35;2.58;;;24.10;94.50;;;;;;4973759;28;20156;-68
2023/08/13 00:39:52;;;;;;;5.23;2.37;;;24.10;94.60;;;;;;4980438;28;20027;-74
2023/08/13 00:42:17;;;;;;;11.60;2.87;;;24.00;94.90;;;;;;4976666;28;20027;-73
2023/08/13 00:44:43;;;;;;;7.72;2.90;;;24.00;94.90;;;;;;4971803;28;20038;-74
2023/08/13 00:47:09;;;;;;;6.47;3.03;;;24.10;94.90;;;;;;4981380;28;20045;-70
2023/08/13 00:49:35;;;;;;;8.77;2.92;;;24.10;95.00;;;;;;4976939;28;20026;-70
2023/08/13 00:52:01;;;;;;;8.27;2.70;;;24.00;95.20;;;;;;4971809;28;20498;-70
2023/08/13 00:54:27;;;;;;;7.88;2.83;;;24.00;95.60;;;;;;4977576;28;20054;-68
2023/08/13 00:56:53;;;;;;;5.80;3.03;;;24.00;95.70;;;;;;4978646;28;20051;-69
2023/08/13 00:59:20;;;;;;;11.70;3.03;;;24.00;95.80;;;;;;4969823;28;20066;-69
2023/08/13 01:01:46;;;;;;;5.38;2.40;;;23.90;95.90;;;;;;4976807;28;20057;-76
2023/08/13 01:04:11;;;;;;;9.95;3.25;;;23.90;96.00;;;;;;4978197;28;20490;-71
2023/08/13 01:07:01;;;;;;;7.23;2.90;;;24.00;96.10;;;;;;4981080;28;20049;-79
2023/08/13 01:09:27;;;;;;;9.10;2.78;;;23.90;96.20;;;;;;4978652;28;20273;-79
2023/08/13 01:12:18;;;;;;;10.40;3.47;;;23.80;96.50;;;;;;4973758;28;20512;-77
2023/08/13 01:14:55;;;;;;;9.68;2.88;;;23.80;96.80;;;;;;4969687;28;20083;-72
2023/08/13 01:17:22;;;;;;;;;;;23.70;97.60;;;;;;4979912;28;20457;-73
2023/08/13 01:19:47;;;;;;;8.73;3.10;;;23.50;98.00;;;;;;4978473;28;20369;-68
2023/08/13 01:22:13;;;;;;;10.88;3.28;;;23.60;98.20;;;;;;4979344;28;20041;-68
2023/08/13 01:24:39;;;;;;;11.93;3.30;;;23.70;97.90;;;;;;4979541;28;20041;-73
2023/08/13 01:27:16;;;;;;;10.27;3.20;;;23.60;98.20;;;;;;4982729;28;20550;-70
2023/08/13 01:29:44;;;;;;;9.07;2.80;;;23.50;98.30;;;;;;4982421;28;20563;-72
2023/08/13 01:32:13;;;;;;;7.65;2.58;;;23.60;98.00;;;;;;4981192;28;20022;-76
2023/08/13 01:34:39;;;;;;;8.18;3.17;;;23.60;98.50;;;;;;4982125;28;20035;-71
2023/08/13 01:37:05;;;;;;;6.47;2.80;;;23.60;98.60;;;;;;4983508;28;20041;-73
2023/08/13 01:39:31;;;;;;;6.90;3.05;;;23.50;98.60;;;;;;4978848;28;20046;-71
2023/08/13 01:41:57;;;;;;;6.93;2.60;;;23.50;98.80;;;;;;4975434;28;20022;-72
2023/08/13 01:44:22;;;;;;;8.93;3.77;;;23.50;99.00;;;;;;4983324;28;20478;-69
2023/08/13 01:46:48;;;;;;;9.38;3.53;;;23.40;99.20;;;;;;4981606;28;20157;-69
2023/08/13 01:49:14;;;;;;;8.85;3.03;;;23.40;99.40;;;;;;4977192;28;20041;-75
2023/08/13 01:51:40;;;;;;;12.88;3.30;;;23.20;99.90;;;;;;4981625;28;20022;-77
2023/08/13 01:54:06;;;;;;;5.87;3.00;;;22.90;99.90;;;;;;4979352;28;20042;-70
2023/08/13 01:56:31;;;;;;;11.32;3.30;;;22.80;99.90;;;;;;4975201;28;20842;-68
2023/08/13 01:58:57;;;;;;;10.30;2.50;;;22.60;99.90;;;;;;4980453;28;20105;-71
2023/08/13 02:01:23;;;;;;;8.77;2.77;;;22.60;99.90;;;;;;4983936;28;20168;-68
2023/08/13 02:03:49;;;;;;;10.67;3.43;;;22.60;99.90;;;;;;4983440;28;20022;-70
2023/08/13 02:06:14;;;;;;;5.28;2.75;;;22.50;99.90;;;;;;4978102;28;20266;-74
2023/08/13 02:08:40;;;;;;;5.77;2.70;;;22.30;99.90;;;;;;4979754;28;20027;-73
2023/08/13 02:11:05;;;;;;;15.37;3.20;;;22.20;99.90;;;;;;4978405;28;20034;-69
2023/08/13 02:13:31;;;;;;;9.40;3.30;;;22.30;99.90;;;;;;4979388;28;20101;-70
2023/08/13 02:16:04;;;;;;;12.13;3.13;;;22.30;99.90;;;;;;4980038;28;20568;-72
2023/08/13 02:18:29;;;;;;;5.20;2.55;;;22.30;99.90;;;;;;4982074;28;20050;-71
2023/08/13 02:20:55;;;;;;;5.70;2.95;;;22.30;99.90;;;;;;4980954;28;20031;-72
2023/08/13 02:23:20;;;;;;;9.50;3.00;;;22.10;99.90;;;;;;4982638;28;20116;-77
2023/08/13 02:25:46;;;;;;;8.83;2.83;;;22.20;99.90;;;;;;4982427;28;20682;-71
2023/08/13 02:28:12;;;;;;;10.53;3.70;;;22.20;99.90;;;;;;4982612;28;20168;-68
2023/08/13 02:30:37;;;;;;;9.00;3.37;;;22.10;99.90;;;;;;4978716;28;20754;-72
2023/08/13 02:33:03;;;;;;;7.00;2.93;;;22.00;99.90;;;;;;4978452;28;20049;-73
2023/08/13 02:35:29;;;;;;;7.32;2.78;;;22.00;99.90;;;;;;4977912;28;20071;-73
2023/08/13 02:37:54;;;;;;;16.40;3.80;;;22.00;99.90;;;;;;4981413;28;20081;-71
2023/08/13 02:40:20;;;;;;;7.40;3.20;;;22.00;99.90;;;;;;4980074;28;20117;-76
2023/08/13 02:42:45;;;;;;;9.60;4.30;;;21.90;99.90;;;;;;4978674;28;20030;-74
2023/08/13 02:45:11;;;;;;;6.00;3.00;;;21.80;99.90;;;;;;4973709;28;20428;-71
2023/08/13 02:47:37;;;;;;;8.10;3.07;;;21.80;99.90;;;;;;4982574;28;20885;-71
2023/08/13 02:50:02;;;;;;;5.93;2.70;;;21.80;99.90;;;;;;4978736;28;20038;-71
2023/08/13 02:52:28;;;;;;;8.93;3.58;;;21.80;99.90;;;;;;4973630;28;20537;-76
2023/08/13 02:54:53;;;;;;;9.43;3.30;;;21.80;99.90;;;;;;4982371;28;20030;-71
2023/08/13 02:57:19;;;;;;;8.10;3.27;;;21.80;99.90;;;;;;4980800;28;20061;-69
2023/08/13 02:59:45;;;;;;;5.43;3.00;;;21.80;99.90;;;;;;4974384;28;20395;-68
2023/08/13 03:02:10;;;;;;;7.27;3.17;;;21.90;99.90;;;;;;4976884;28;20121;-69
2023/08/13 03:04:36;;;;;;;7.87;3.10;;;21.80;99.90;;;;;;4976979;28;20030;-68
2023/08/13 03:07:01;;;;;;;8.03;3.63;;;21.80;99.90;;;;;;4984016;28;20038;-72
2023/08/13 03:09:27;;;;;;;8.80;3.40;;;21.80;99.90;;;;;;4980453;28;20030;-68
2023/08/13 03:11:52;;;;;;;5.27;3.23;;;21.70;99.90;;;;;;4977798;28;20160;-72
2023/08/13 03:14:18;;;;;;;9.13;3.10;;;21.60;99.90;;;;;;4981017;28;20027;-68
2023/08/13 03:16:44;;;;;;;9.03;3.53;;;21.50;99.90;;;;;;4982920;28;20144;-69
2023/08/13 03:19:09;;;;;;;9.97;3.70;;;21.40;99.90;;;;;;4973046;28;20034;-68
2023/08/13 03:21:35;;;;;;;10.68;3.25;;;21.40;99.90;;;;;;4982230;28;20045;-67
2023/08/13 03:24:01;;;;;;;9.32;3.60;;;21.50;99.90;;;;;;4995179;28;20045;-72
2023/08/13 03:26:27;;;;;;;6.85;2.97;;;21.40;99.90;;;;;;4975380;28;20041;-70
2023/08/13 03:28:52;;;;;;;9.33;3.87;;;21.40;99.90;;;;;;4981370;28;20481;-73
2023/08/13 03:31:18;;;;;;;11.10;3.70;;;21.50;99.90;;;;;;4983998;28;20109;-70
2023/08/13 03:33:43;;;;;;;7.40;3.43;;;21.40;99.90;;;;;;4978020;28;20289;-75
2023/08/13 03:36:10;;;;;;;9.30;3.67;;;21.40;99.90;;;;;;4974354;28;20031;-76
2023/08/13 03:38:35;;;;;;;9.80;3.50;;;21.30;99.90;;;;;;4971282;28;20053;-75
2023/08/13 03:41:01;;;;;;;6.90;3.13;;;21.20;99.90;;;;;;4978215;28;20026;-70
2023/08/13 03:43:27;;;;;;;8.32;3.00;;;21.20;99.90;;;;;;4993071;28;20023;-69
2023/08/13 03:45:53;;;;;;;7.93;2.97;;;21.10;99.90;;;;;;4988794;28;20034;-73
2023/08/13 03:48:19;;;;;;;9.47;4.10;;;21.10;99.90;;;;;;4976100;28;20064;-69
2023/08/13 03:50:45;;;;;;;12.98;3.95;;;21.10;99.90;;;;;;4982784;28;20082;-70
2023/08/13 03:53:11;;;;;;;8.88;3.58;;;21.00;99.90;;;;;;4979741;28;20042;-71
2023/08/13 03:55:37;;;;;;;8.10;3.35;;;21.10;99.90;;;;;;4971222;28;20030;-69
2023/08/13 03:58:03;;;;;;;7.55;3.10;;;20.90;99.90;;;;;;4971899;28;20176;-71
2023/08/13 04:00:30;;;;;;;10.45;4.10;;;20.90;99.90;;;;;;4985040;28;20113;-70
2023/08/13 04:02:56;;;;;;;9.57;3.65;;;21.00;99.90;;;;;;4982947;28;20126;-72
2023/08/13 04:05:22;;;;;;;12.98;3.55;;;21.00;99.90;;;;;;4978722;28;20545;-71
2023/08/13 04:07:47;;;;;;;7.93;3.83;;;21.00;99.90;;;;;;4979730;28;20129;-72
2023/08/13 04:10:13;;;;;;;10.00;3.77;;;20.90;99.90;;;;;;4986477;28;20054;-73
2023/08/13 04:12:39;;;;;;;7.97;3.72;;;20.90;99.90;;;;;;4992089;28;20053;-69
2023/08/13 04:15:05;;;;;;;12.03;4.00;;;20.90;99.90;;;;;;4972539;28;20095;-72
2023/08/13 04:17:30;;;;;;;8.80;3.47;;;20.80;99.90;;;;;;4977750;28;20055;-69
2023/08/13 04:19:56;;;;;;;7.67;3.50;;;20.80;99.90;;;;;;4976848;28;20042;-68
2023/08/13 04:22:22;;;;;;;7.75;3.33;;;20.70;99.90;;;;;;4976945;28;20487;-68
2023/08/13 04:24:51;;;;;;;6.47;3.30;;;20.80;99.90;;;;;;4978223;28;20118;-72
2023/08/13 04:27:17;;;;;;;9.55;3.20;;;20.60;99.90;;;;;;4978084;28;20034;-70
2023/08/13 04:29:43;;;;;;;;;;;20.60;99.90;;;;;;4978393;28;20043;-73
2023/08/13 04:32:08;;;;;;;5.72;3.60;;;20.70;99.90;;;;;;4977049;28;19917;-69
2023/08/13 04:34:34;;;;;;;6.73;3.63;;;20.60;99.90;;;;;;4999125;28;20029;-75
2023/08/13 04:36:59;;;;;;;14.20;4.10;;;20.70;99.90;;;;;;4997662;28;20042;-72
2023/08/13 04:39:25;;;;;;;8.37;4.07;;;20.60;99.90;;;;;;4988962;28;20113;-68
2023/08/13 04:41:52;;;;;;;9.10;3.77;;;20.70;99.90;;;;;;4982948;28;20042;-67
2023/08/13 04:44:17;;;;;;;9.73;3.92;;;20.70;99.90;;;;;;4995237;28;20372;-71
2023/08/13 04:46:43;;;;;;;15.63;4.20;;;20.70;99.90;;;;;;4982620;28;20137;-70
2023/08/13 04:49:08;;;;;;;8.90;4.17;;;20.50;99.90;;;;;;4982861;28;20046;-73
2023/08/13 04:51:34;;;;;;;5.57;3.60;;;20.40;99.90;;;;;;4986159;28;20491;-70
2023/08/13 04:53:59;;;;;;;7.30;3.83;;;20.50;99.90;;;;;;4977382;28;20028;-69
2023/08/13 04:56:25;;;;;;;8.20;3.80;;;20.50;99.90;;;;;;4979615;28;20465;-70
2023/08/13 04:58:51;;;;;;;10.70;4.40;;;20.40;99.90;;;;;;4976084;28;20560;-70
2023/08/13 05:01:16;;;;;;;10.43;4.07;;;20.60;99.90;;;;;;4993682;28;20424;-68
2023/08/13 05:03:42;;;;;;;11.53;3.80;;;20.50;99.90;;;;;;4979533;28;20100;-73
2023/08/13 05:06:08;;;;;;;7.60;3.53;;;20.50;99.90;;;;;;4985481;28;20095;-71
2023/08/13 05:08:33;;;;;;;7.50;3.57;;;20.60;99.90;;;;;;4986786;28;20030;-67
2023/08/13 05:10:59;;;;;;;6.10;3.90;;;20.70;99.90;;;;;;4982754;28;20113;-68
2023/08/13 05:13:25;;;;;;;8.47;3.90;;;20.90;99.90;;;;;;4976648;28;20094;-68
2023/08/13 05:15:50;;;;;;;7.80;4.17;;;21.10;99.90;;;;;;4986928;28;20535;-69
2023/08/13 05:18:16;;;;;;;11.33;3.37;;;21.10;99.90;;;;;;4989923;28;20615;-67
2023/08/13 05:20:41;;;;;;;7.17;4.00;;;21.30;99.90;;;;;;4981498;28;20022;-67
2023/08/13 05:23:07;;;;;;;8.60;3.97;;;21.50;99.90;;;;;;4988614;28;20025;-67
2023/08/13 05:25:38;;;;;;;10.50;4.00;;;21.50;99.90;;;;;;4973196;28;20030;-69
2023/08/13 05:28:05;;;;;;;8.35;3.72;;;22.20;99.90;;;;;;4985323;28;20026;-72
2023/08/13 05:30:32;;;;;;;8.27;3.85;;;22.10;99.90;;;;;;4985245;28;20064;-72
2023/08/13 05:32:58;;;;;;;11.98;3.90;;;22.10;99.90;;;;;;4981592;28;20031;-72
2023/08/13 05:35:23;;;;;;;7.20;4.23;;;22.20;99.90;;;;;;4978715;28;20084;-75
2023/08/13 05:37:49;;;;;;;7.30;3.60;;;22.50;99.90;;;;;;4987735;28;20127;-69
2023/08/13 05:40:14;;;;;;;5.20;3.47;;;22.90;99.90;;;;;;4981627;28;20304;-74
2023/08/13 05:42:40;;;;;;;9.60;4.30;;;23.10;99.90;;;;;;4988077;28;20076;-74
2023/08/13 05:45:06;;;;;;;12.10;3.47;;;24.10;99.90;;;;;;4987119;28;20092;-82
2023/08/13 05:47:32;;;;;;;12.70;3.53;;;24.40;99.50;;;;;;4979264;28;20053;-76
2023/08/13 05:49:57;;;;;;;11.77;3.63;;;23.00;99.90;;;;;;4997517;28;20046;-74
2023/08/13 05:52:24;;;;;;;12.80;4.27;;;22.00;99.90;;;;;;4990004;28;20051;-79
2023/08/13 05:54:49;;;;;;;;;;;22.00;99.90;;;;;;4990204;28;20098;-73
2023/08/13 05:57:15;;;;;;;8.80;3.90;;;21.90;99.90;;;;;;4990082;28;19964;-77
2023/08/13 05:59:42;;;;;;;10.68;3.25;;;22.00;99.90;;;;;;4980003;28;20109;-80
2023/08/13 06:02:08;;;;;;;13.05;4.20;;;22.10;99.90;;;;;;4996854;28;20081;-67
2023/08/13 06:04:36;;;;;;;7.22;3.80;;;21.90;99.90;;;;;;4988069;28;20120;-74
2023/08/13 06:07:03;;;;;;;10.40;4.00;;;21.60;99.90;;;;;;4981688;28;20043;-70
2023/08/13 06:09:30;;;;;;;10.30;4.10;;;21.80;99.90;;;;;;4994451;28;20026;-70
2023/08/13 06:11:55;;;;;;;;;;;22.10;99.90;;;;;;4983063;28;20041;-73
2023/08/13 06:14:21;;;;;;;7.97;3.60;;;22.00;99.90;;;;;;4981081;28;20863;-74
2023/08/13 06:16:47;;;;;;;9.70;3.90;;;22.10;99.90;;;;;;4987701;28;20444;-72
2023/08/13 06:19:12;;;;;;;5.93;3.58;;;22.50;99.90;;;;;;4981343;28;20510;-71
2023/08/13 06:21:38;;;;;;;11.45;3.83;;;22.50;99.90;;;;;;4983607;28;20041;-75
2023/08/13 06:24:05;;;;;;;10.40;3.43;;;22.70;99.90;;;;;;4991867;28;20079;-76
2023/08/13 06:26:34;;;;;;;6.47;3.67;;;23.00;99.90;;;;;;4999885;28;20030;-75
2023/08/13 06:29:00;;;;;;;9.18;3.85;;;23.60;99.90;;;;;;4983436;28;20508;-73
2023/08/13 06:31:25;;;;;;;8.73;4.50;;;23.40;99.90;;;;;;4974892;28;20063;-75
2023/08/13 06:33:51;;;;;;;6.53;3.40;;;23.30;99.90;;;;;;4979502;28;20033;-78
2023/08/13 06:36:17;;;;;;;13.13;4.30;;;23.60;99.90;;;;;;4978999;28;20042;-76
2023/08/13 06:38:43;;;;;;;6.40;3.35;;;23.70;99.90;;;;;;4984095;28;20066;-76
2023/08/13 06:41:08;;;;;;;6.17;3.10;;;23.40;99.90;;;;;;4982459;28;20069;-76
2023/08/13 06:43:34;;;;;;;5.53;3.60;;;23.60;99.90;;;;;;4989607;28;20040;-80
2023/08/13 06:46:01;;;;;;;5.10;3.40;;;24.10;99.90;;;;;;4989513;28;20048;-79
2023/08/13 06:48:27;;;;;;;;;;;24.40;99.90;;;;;;4990108;28;20038;-69
2023/08/13 06:50:56;;;;;;;5.95;3.20;;;24.40;99.90;;;;;;4981921;28;20405;-72
2023/08/13 06:53:22;;;;;;;7.97;3.40;;;24.50;99.90;;;;;;4999371;28;20035;-68
2023/08/13 06:55:48;;;;;;;7.43;3.58;;;24.60;99.90;;;;;;4978733;28;20034;-69
2023/08/13 06:58:14;;;;;;;11.30;3.40;;;24.70;99.90;;;;;;4984952;28;20057;-68
2023/08/13 07:00:40;;;;;;;6.43;3.63;;;24.80;99.20;;;;;;4991938;28;20302;-69
2023/08/13 07:03:07;;;;;;;9.55;3.30;;;24.60;99.20;;;;;;4989362;28;20395;-74
2023/08/13 07:05:34;;;;;;;13.80;4.13;;;24.60;99.30;;;;;;4984581;28;20486;-71
2023/08/13 07:07:59;;;;;;;9.00;3.55;;;24.50;98.80;;;;;;4987411;28;20058;-69
2023/08/13 07:10:25;;;;;;;6.57;3.00;;;24.60;99.10;;;;;;4983715;28;20537;-68
2023/08/13 07:12:50;;;;;;;5.37;3.60;;;24.80;98.60;;;;;;4984587;28;20084;-70
2023/08/13 07:15:16;;;;;;;10.07;3.17;;;24.80;98.70;;;;;;4984597;28;20656;-73
2023/08/13 07:17:41;;;;;;;7.70;2.63;;;24.80;98.60;;;;;;4975668;28;20042;-80
2023/08/13 07:20:09;;;;;;;7.43;3.33;;;25.00;98.40;;;;;;4979595;28;20109;-75
2023/08/13 07:22:39;;;;;;;10.35;3.60;;;24.50;98.40;;;;;;4978711;28;20037;-69
2023/08/13 07:25:05;;;;;;;10.63;3.75;;;24.60;99.10;;;;;;4982251;28;20057;-75
2023/08/13 07:27:32;;;;;;;11.02;4.13;;;25.00;98.10;;;;;;4984241;28;20058;-71
2023/08/13 07:29:57;;;;;;;9.80;3.13;;;25.40;96.90;;;;;;4977635;28;20145;-79
2023/08/13 07:32:23;;;;;;;4.57;3.60;;;25.80;95.90;;;;;;4988967;28;20552;-75
2023/08/13 07:34:48;;;;;;;7.27;3.70;;;26.10;95.10;;;;;;4981739;28;20292;-69
2023/08/13 07:37:14;;;;;;;10.30;3.47;;;26.10;95.30;;;;;;4983439;28;20042;-79
2023/08/13 07:39:40;;;;;;;6.27;3.33;;;26.30;95.20;;;;;;4998229;28;20109;-77
2023/08/13 07:42:08;;;;;;;21.45;4.97;;;26.00;95.40;;;;;;4979504;28;20282;-73
2023/08/13 07:44:34;;;;;;;9.55;3.92;;;26.50;94.60;;;;;;4985223;28;20379;-76
2023/08/13 07:47:00;;;;;;;11.38;5.05;;;26.60;94.00;;;;;;4988741;28;20869;-78
2023/08/13 07:49:27;;;;;;;16.92;5.13;;;26.60;93.80;;;;;;4986021;28;20043;-73
2023/08/13 07:51:52;;;;;;;;;;;26.30;94.00;;;;;;4983416;28;20084;-79
2023/08/13 07:54:19;;;;;;;80.38;21.05;;;26.20;94.50;;;;;;4980675;28;19914;-77
2023/08/13 07:56:45;;;;;;;87.20;20.73;;;26.40;93.90;;;;;;4981283;28;20068;-79
2023/08/13 07:59:10;;;;;;;15.90;6.07;;;25.90;94.60;;;;;;5001496;28;20030;-79
2023/08/13 08:01:36;;;;;;;121.83;30.73;;;26.30;94.90;;;;;;4984049;28;20712;-82
2023/08/13 08:04:03;;;;;;;12.82;4.93;;;26.60;94.30;;;;;;4976325;28;20301;-78
2023/08/13 08:06:29;;;;;;;17.38;4.10;;;26.60;92.70;;;;;;4978588;28;20038;-82
2023/08/13 08:08:54;;;;;;;50.22;15.52;;;26.90;92.10;;;;;;4987951;28;20033;-80
2023/08/13 08:11:20;;;;;;;46.58;14.80;;;27.80;91.50;;;;;;5003815;28;20062;-77
2023/08/13 08:13:46;;;;;;;59.72;16.05;;;28.20;90.60;;;;;;4984308;28;20037;-79
2023/08/13 08:16:11;;;;;;;9.43;3.90;;;28.40;90.10;;;;;;4978182;28;20466;-82
2023/08/13 08:18:37;;;;;;;15.00;5.15;;;28.30;90.60;;;;;;4976123;28;20056;-77
2023/08/13 08:21:02;;;;;;;14.70;4.90;;;28.60;90.00;;;;;;4987966;28;20105;-68
2023/08/13 08:23:28;;;;;;;8.23;3.60;;;28.20;88.20;;;;;;4986173;28;20293;-74
2023/08/13 08:25:54;;;;;;;8.30;3.47;;;28.60;89.40;;;;;;4982023;28;20030;-73
2023/08/13 08:28:19;;;;;;;8.63;5.10;;;28.90;85.60;;;;;;4979761;28;20502;-71
2023/08/13 08:30:45;;;;;;;11.30;4.90;;;28.20;88.60;;;;;;4984003;28;20047;-75
2023/08/13 08:33:10;;;;;;;11.77;5.25;;;29.10;86.20;;;;;;4979681;28;20109;-74
2023/08/13 08:35:36;;;;;;;12.75;4.85;;;29.60;85.20;;;;;;4980875;28;20070;-75
2023/08/13 08:38:02;;;;;;;10.60;3.28;;;29.30;85.40;;;;;;4978647;28;20405;-75
2023/08/13 08:40:27;;;;;;;12.88;4.88;;;29.10;85.30;;;;;;4980184;28;20034;-74
2023/08/13 08:42:53;;;;;;;6.97;4.30;;;29.10;86.00;;;;;;4990733;28;20026;-78
2023/08/13 08:45:21;;;;;;;8.02;3.85;;;29.30;84.90;;;;;;4984511;28;20575;-71
2023/08/13 08:47:50;;;;;;;9.55;3.67;;;29.40;84.50;;;;;;4982670;28;20410;-78
2023/08/13 08:50:17;;;;;;;6.20;3.50;;;29.00;83.40;;;;;;4988099;28;20045;-78
2023/08/13 08:52:42;;;;;;;9.20;3.50;;;28.90;84.70;;;;;;4994210;28;20026;-78
2023/08/13 08:55:11;;;;;;;7.50;3.45;;;29.70;83.00;;;;;;4983884;28;20041;-73
2023/08/13 08:57:37;;;;;;;8.23;3.53;;;30.20;80.60;;;;;;4977210;28;20043;-81
2023/08/13 09:00:04;;;;;;;10.35;3.55;;;29.30;80.20;;;;;;4980550;28;20536;-81
2023/08/13 09:02:29;;;;;;;;;;;29.20;83.50;;;;;;4982897;28;20117;-68
2023/08/13 09:04:55;;;;;;;8.82;3.10;;;30.60;79.00;;;;;;4978517;28;20024;-68
2023/08/13 09:07:29;;;;;;;6.70;3.40;;;30.50;78.90;;;;;;4989900;28;20037;-68
2023/08/13 09:09:55;;;;;;;10.45;4.45;;;30.20;80.60;;;;;;4979877;28;20134;-68
2023/08/13 09:12:21;;;;;;;7.63;3.65;;;29.70;81.60;;;;;;4998384;28;20621;-68
2023/08/13 09:14:46;;;;;;;12.35;4.10;;;29.90;80.50;;;;;;4978160;28;20034;-70
2023/08/13 09:17:12;;;;;;;6.93;4.32;;;30.30;81.20;;;;;;4978329;28;20054;-70
2023/08/13 09:19:38;;;;;;;10.57;3.70;;;30.50;80.60;;;;;;4982644;28;20091;-68
2023/08/13 09:22:04;;;;;;;8.27;3.72;;;30.70;78.80;;;;;;4985780;28;20030;-68
2023/08/13 09:24:35;;;;;;;12.90;5.28;;;30.20;80.80;;;;;;4992893;28;20030;-67
2023/08/13 09:27:02;;;;;;;8.50;3.78;;;29.60;80.70;;;;;;4984931;28;20058;-72
2023/08/13 09:29:31;;;;;;;7.20;3.80;;;30.50;81.30;;;;;;4985231;28;20524;-82
2023/08/13 09:32:00;;;;;;;7.70;3.53;;;30.20;80.80;;;;;;4988162;28;20079;-69
2023/08/13 09:34:29;;;;;;;9.20;3.50;;;29.70;80.50;;;;;;4984453;28;20034;-71
2023/08/13 09:36:55;;;;;;;5.70;3.00;;;29.40;81.60;;;;;;4979149;28;20626;-75
2023/08/13 09:39:26;;;;;;;6.57;3.70;;;29.60;82.40;;;;;;4985684;28;20034;-75
2023/08/13 09:41:53;;;;;;;6.10;4.10;;;30.80;79.90;;;;;;4979908;28;20026;-73
2023/08/13 09:44:21;;;;;;;9.75;5.55;;;31.30;77.20;;;;;;4976334;28;20026;-72
2023/08/13 09:46:53;;;;;;;10.55;4.57;;;32.80;73.00;;;;;;4986662;28;20019;-77
2023/08/13 09:49:20;;;;;;;7.07;3.95;;;32.40;74.20;;;;;;4977381;28;20106;-78
2023/08/13 09:51:50;;;;;;;6.20;4.05;;;31.20;75.90;;;;;;4988370;28;20033;-78
2023/08/13 09:54:49;;;;;;;8.95;4.10;;;30.50;78.20;;;;;;4988050;28;20069;-76
2023/08/13 09:57:17;;;;;;;8.32;3.65;;;30.20;80.10;;;;;;4995193;28;20042;-77
2023/08/13 09:59:44;;;;;;;6.28;3.35;;;31.10;78.70;;;;;;4992805;28;20036;-81
2023/08/13 10:02:11;;;;;;;7.65;3.97;;;35.80;71.70;;;;;;4979203;28;20027;-84
2023/08/13 10:04:40;;;;;;;6.57;3.65;;;37.30;64.80;;;;;;4983111;28;20597;-82
2023/08/13 10:07:07;;;;;;;6.57;3.92;;;38.30;60.00;;;;;;4995515;28;20018;-84
2023/08/13 10:09:34;;;;;;;8.27;3.88;;;36.00;62.60;;;;;;4985214;28;20088;-77
2023/08/13 10:12:05;;;;;;;5.30;4.03;;;35.90;63.80;;;;;;4996585;28;20023;-84
2023/08/13 10:14:31;;;;;;;7.05;3.70;;;39.50;57.80;;;;;;4980104;28;20034;-79
2023/08/13 10:17:01;;;;;;;;;;;41.80;54.90;;;;;;4985825;28;20054;-74
2023/08/13 10:19:31;;;;;;;8.98;3.10;;;43.30;53.00;;;;;;4974692;28;19949;-81
2023/08/13 10:21:57;;;;;;;8.70;3.20;;;43.10;52.00;;;;;;4981487;28;20042;-73
2023/08/13 10:24:27;;;;;;;4.93;3.10;;;44.20;50.20;;;;;;4983358;28;20097;-77
2023/08/13 10:26:53;;;;;;;5.68;3.33;;;44.90;48.90;;;;;;4990290;28;20500;-84
2023/08/13 10:29:20;;;;;;;6.57;2.80;;;44.60;48.20;;;;;;4981050;28;20023;-83
2023/08/13 10:32:00;;;;;;;5.97;3.10;;;45.20;49.50;;;;;;4988846;28;20042;-83
2023/08/13 10:34:39;;;;;;;8.07;3.28;;;44.20;47.30;;;;;;4980023;28;20034;-79
2023/08/13 10:37:16;;;;;;;5.05;2.78;;;45.20;48.90;;;;;;4976631;28;20395;-81
2023/08/13 10:39:43;;;;;;;6.10;3.17;;;45.30;47.60;;;;;;4974949;28;20141;-70
2023/08/13 10:42:27;;;;;;;6.43;3.15;;;44.90;47.00;;;;;;4987054;28;20563;-70
2023/08/13 10:45:13;;;;;;;4.93;2.90;;;45.30;45.50;;;;;;4983971;28;20030;-73
2023/08/13 10:47:53;;;;;;;5.72;2.30;;;45.20;47.60;;;;;;4995059;28;20025;-69
2023/08/13 10:50:28;;;;;;;8.05;3.17;;;41.60;49.90;;;;;;4981649;28;20502;-72
2023/08/13 10:53:10;;;;;;;7.90;3.08;;;38.50;53.50;;;;;;4979906;28;20683;-73
2023/08/13 10:55:38;;;;;;;12.88;4.32;;;36.70;56.00;;;;;;4982337;28;20125;-72
2023/08/13 10:58:05;;;;;;;4.05;2.90;;;35.50;58.20;;;;;;4986305;28;20092;-76
2023/08/13 11:00:30;;;;;;;4.28;2.78;;;34.60;59.20;;;;;;4991084;28;20042;-73
2023/08/13 11:03:14;;;;;;;;;;;33.30;59.00;;;;;;5002504;28;20034;-75
2023/08/13 11:05:39;;;;;;;5.63;3.25;;;32.40;62.80;;;;;;4989902;28;19975;-78
2023/08/13 11:08:06;;;;;;;;;;;32.70;62.00;;;;;;4978471;28;20038;-74
2023/08/13 11:10:33;;;;;;;5.10;3.23;;;32.70;63.80;;;;;;4978798;28;19948;-79
2023/08/13 11:13:00;;;;;;;4.82;3.10;;;33.40;61.40;;;;;;4979731;28;20041;-77
2023/08/13 11:15:28;;;;;;;3.95;2.67;;;33.60;60.80;;;;;;4980059;28;20030;-71
2023/08/13 11:17:53;;;;;;;4.43;2.65;;;33.20;57.60;;;;;;4973048;28;20070;-71
2023/08/13 11:20:19;;;;;;;;;;;32.90;59.10;;;;;;4979313;28;20535;-72
2023/08/13 11:22:46;;;;;;;4.45;3.03;;;33.00;60.10;;;;;;4983373;28;19917;-72
2023/08/13 11:25:13;;;;;;;4.28;2.65;;;33.00;60.40;;;;;;4980766;28;20039;-71
2023/08/13 11:27:39;;;;;;;5.78;2.83;;;33.00;59.40;;;;;;4982297;28;20492;-72
2023/08/13 11:30:07;;;;;;;;;;;33.20;59.40;;;;;;4990160;28;20117;-72
2023/08/13 11:32:33;;;;;;;4.82;3.00;;;33.10;59.50;;;;;;4993043;28;19912;-72
2023/08/13 11:34:59;;;;;;;4.60;2.90;;;32.80;59.20;;;;;;4983372;28;20034;-72
2023/08/13 11:37:25;;;;;;;6.65;2.95;;;32.90;58.40;;;;;;4997740;28;20070;-73
2023/08/13 11:39:50;;;;;;;9.57;3.38;;;32.80;59.40;;;;;;4980239;28;20065;-79
2023/08/13 11:42:16;;;;;;;26.10;6.55;;;33.20;59.60;;;;;;4988803;28;20046;-73
2023/08/13 11:44:41;;;;;;;;;;;33.10;61.20;;;;;;4986733;28;20031;-72
2023/08/13 11:47:08;;;;;;;14.43;4.53;;;33.20;64.40;;;;;;4976637;28;19916;-74
2023/08/13 11:49:42;;;;;;;5.40;2.92;;;32.60;61.00;;;;;;4980557;28;20034;-76
2023/08/13 11:52:08;;;;;;;5.13;2.60;;;32.80;58.00;;;;;;4982587;28;20018;-75
2023/08/13 11:54:36;;;;;;;5.95;3.25;;;33.00;60.50;;;;;;4980249;28;20139;-75
2023/08/13 11:57:03;;;;;;;5.82;2.65;;;33.00;59.30;;;;;;4992504;28;20052;-75
2023/08/13 11:59:31;;;;;;;5.45;3.53;;;32.90;59.20;;;;;;4977360;28;20031;-74
2023/08/13 12:01:57;;;;;;;2.97;2.67;;;33.10;60.50;;;;;;4979287;28;20023;-75
2023/08/13 12:04:24;;;;;;;7.28;2.92;;;32.90;58.60;;;;;;4985068;28;20034;-75
2023/08/13 12:06:53;;;;;;;5.45;2.80;;;32.80;61.10;;;;;;4982355;28;20027;-75
2023/08/13 12:09:19;;;;;;;6.10;2.38;;;32.90;59.50;;;;;;4981450;28;20121;-76
2023/08/13 12:11:45;;;;;;;6.15;3.13;;;33.10;59.70;;;;;;4976255;28;20071;-76
2023/08/13 12:14:11;;;;;;;5.40;3.30;;;33.00;59.70;;;;;;4976845;28;21026;-76
2023/08/13 12:16:36;;;;;;;;;;;33.10;60.60;;;;;;4990551;28;20037;-76
2023/08/13 12:19:06;;;;;;;3.28;2.67;;;33.10;58.70;;;;;;4979675;28;20475;-75
2023/08/13 12:21:32;;;;;;;5.10;3.17;;;33.00;61.40;;;;;;4998203;28;20038;-78
2023/08/13 12:23:58;;;;;;;5.78;3.22;;;33.10;60.30;;;;;;4987553;28;20022;-74
2023/08/13 12:26:24;;;;;;;;;;;33.10;60.80;;;;;;4978889;28;20050;-74
2023/08/13 12:28:52;;;;;;;5.38;2.83;;;33.00;61.20;;;;;;4976715;28;19914;-75
2023/08/13 12:31:21;;;;;;;7.22;3.60;;;33.10;61.20;;;;;;4988570;28;20030;-75
2023/08/13 12:33:47;;;;;;;5.15;3.55;;;33.10;60.00;;;;;;4978562;28;20383;-75
2023/08/13 12:36:12;;;;;;;10.70;3.85;;;33.10;58.60;;;;;;4990318;28;20029;-75
2023/08/13 12:38:41;;;;;;;9.15;3.55;;;33.20;60.20;;;;;;4993781;28;20047;-74
2023/08/13 12:41:07;;;;;;;4.13;3.00;;;33.10;57.90;;;;;;4980188;28;20506;-75
2023/08/13 12:43:34;;;;;;;;;;;33.10;58.70;;;;;;4990467;28;20036;-75
2023/08/13 12:46:00;;;;;;;7.47;3.38;;;33.30;62.50;;;;;;4976825;28;19965;-75